createdAt,value
2022-10-11T00:00:12.267Z,90.15
2022-10-11T00:02:39.351Z,90.32
2022-10-11T00:05:07.923Z,90.21
2022-10-11T00:07:36.547Z,89.96
2022-10-11T00:10:05.987Z,90.38
2022-10-11T00:12:34.623Z,90.39
2022-10-11T00:15:02.041Z,90.54
2022-10-11T00:17:29.437Z,89.91
2022-10-11T00:19:56.622Z,90.00
2022-10-11T00:22:23.820Z,89.83
2022-10-11T00:24:52.624Z,89.73
2022-10-11T00:27:19.844Z,90.36
2022-10-11T00:29:46.926Z,90.60
2022-10-11T00:32:14.039Z,90.17
2022-10-11T00:34:41.261Z,90.81
2022-10-11T00:37:08.395Z,91.05
2022-10-11T00:39:35.535Z,90.88
2022-10-11T00:42:02.863Z,90.92
2022-10-11T00:44:32.926Z,91.02
2022-10-11T00:47:03.401Z,91.47
2022-10-11T00:49:34.947Z,91.50
2022-10-11T00:52:07.356Z,91.23
2022-10-11T00:54:39.110Z,91.22
2022-10-11T00:57:12.078Z,91.52
2022-10-11T00:59:45.247Z,91.40
2022-10-11T01:02:13.294Z,91.75
2022-10-11T01:04:41.744Z,91.90
2022-10-11T01:07:09.858Z,92.18
2022-10-11T01:09:37.366Z,92.51
2022-10-11T01:12:12.066Z,92.30
2022-10-11T01:15:03.678Z,92.24
2022-10-11T01:17:59.400Z,92.70
2022-10-11T01:20:38.324Z,92.54
2022-10-11T01:23:42.765Z,93.01
2022-10-11T01:26:28.536Z,93.32
2022-10-11T01:29:17.018Z,93.45
2022-10-11T01:31:51.994Z,93.79
2022-10-11T01:34:40.287Z,94.02
2022-10-11T01:37:33.115Z,94.19
2022-10-11T01:40:12.705Z,94.18
2022-10-11T01:42:42.282Z,94.56
2022-10-11T01:45:13.943Z,95.01
2022-10-11T01:47:42.535Z,95.11
2022-10-11T01:50:34.452Z,95.68
2022-10-11T01:53:15.307Z,95.87
2022-10-11T01:56:07.243Z,95.88
2022-10-11T01:59:12.139Z,95.76
2022-10-11T02:02:02.205Z,95.76
2022-10-11T02:04:38.090Z,95.92
2022-10-11T02:07:19.510Z,95.49
2022-10-11T02:10:11.724Z,96.35
2022-10-11T02:12:47.398Z,96.13
2022-10-11T02:15:17.268Z,96.48
2022-10-11T02:17:49.217Z,96.79
2022-10-11T02:20:21.271Z,97.09
2022-10-11T02:22:53.346Z,97.29
2022-10-11T02:25:25.186Z,97.19
2022-10-11T02:27:57.229Z,97.39
2022-10-11T02:30:24.378Z,97.22
2022-10-11T02:32:53.848Z,97.21
2022-10-11T02:35:25.135Z,97.23
2022-10-11T02:38:22.833Z,97.55
2022-10-11T02:41:11.658Z,98.03
2022-10-11T02:43:45.359Z,98.31
2022-10-11T02:46:12.990Z,98.45
2022-10-11T02:48:40.068Z,99.20
2022-10-11T02:51:13.247Z,99.23
2022-10-11T02:53:40.417Z,99.18
2022-10-11T02:56:08.146Z,99.40
2022-10-11T02:58:35.969Z,99.44
2022-10-11T03:01:03.083Z,99.34
2022-10-11T03:03:30.178Z,99.42
2022-10-11T03:06:02.393Z,99.52
2022-10-11T03:08:30.231Z,99.53
2022-10-11T03:10:57.452Z,99.62
2022-10-11T03:13:24.674Z,99.69
2022-10-11T03:16:02.920Z,99.40
2022-10-11T03:18:31.478Z,99.14
2022-10-11T03:20:58.696Z,99.45
2022-10-11T03:23:25.819Z,99.41
2022-10-11T03:25:52.963Z,99.65
2022-10-11T03:28:20.645Z,99.85
2022-10-11T03:30:51.435Z,99.77
2022-10-11T03:33:19.190Z,100.00
2022-10-11T03:35:47.636Z,100.00
2022-10-11T03:38:17.645Z,100.00
2022-10-11T03:40:44.746Z,100.00
2022-10-11T03:43:11.871Z,99.86
2022-10-11T03:45:39.654Z,99.86
2022-10-11T03:48:06.779Z,100.00
2022-10-11T03:50:33.972Z,100.00
2022-10-11T03:53:01.114Z,100.00
2022-10-11T03:55:28.214Z,99.76
2022-10-11T03:57:55.308Z,99.75
2022-10-11T04:00:22.643Z,99.85
2022-10-11T04:02:49.802Z,99.86
2022-10-11T04:05:17.156Z,100.00
2022-10-11T04:07:44.318Z,100.00
2022-10-11T04:10:11.445Z,100.00
2022-10-11T04:12:39.129Z,100.00
2022-10-11T04:15:07.322Z,100.00
2022-10-11T04:17:34.417Z,100.00
2022-10-11T04:20:01.573Z,100.00
2022-10-11T04:22:28.760Z,100.00
2022-10-11T04:24:55.850Z,100.00
2022-10-11T04:27:22.986Z,100.00
2022-10-11T04:29:50.137Z,100.00
2022-10-11T04:32:17.243Z,100.00
2022-10-11T04:34:44.407Z,100.00
2022-10-11T04:37:11.839Z,100.00
2022-10-11T04:39:39.033Z,100.00
2022-10-11T04:42:06.137Z,100.00
2022-10-11T04:44:33.221Z,100.00
2022-10-11T04:47:00.394Z,100.00
2022-10-11T04:49:27.510Z,100.00
2022-10-11T04:51:54.625Z,100.00
2022-10-11T04:54:22.003Z,100.00
2022-10-11T04:56:49.147Z,100.00
2022-10-11T04:59:16.303Z,100.00
2022-10-11T05:01:43.532Z,100.00
2022-10-11T05:04:10.673Z,100.00
2022-10-11T05:06:37.803Z,100.00
2022-10-11T05:09:04.906Z,100.00
2022-10-11T05:11:32.035Z,100.00
2022-10-11T05:13:59.267Z,100.00
2022-10-11T05:16:26.435Z,100.00
2022-10-11T05:18:53.533Z,100.00
2022-10-11T05:21:26.506Z,100.00
2022-10-11T05:23:55.921Z,100.00
2022-10-11T05:26:25.509Z,100.00
2022-10-11T05:28:52.857Z,100.00
2022-10-11T05:31:20.507Z,100.00
2022-10-11T05:33:47.953Z,100.00
2022-10-11T05:36:15.170Z,100.00
2022-10-11T05:38:42.499Z,100.00
2022-10-11T05:41:14.485Z,100.00
2022-10-11T05:43:42.074Z,100.00
2022-10-11T05:46:09.388Z,100.00
2022-10-11T05:48:36.759Z,100.00
2022-10-11T05:51:07.154Z,100.00
2022-10-11T05:53:34.255Z,100.00
2022-10-11T05:56:01.686Z,100.00
2022-10-11T05:58:29.317Z,100.00
2022-10-11T06:00:57.003Z,100.00
2022-10-11T06:03:24.274Z,100.00
2022-10-11T06:05:56.492Z,100.00
2022-10-11T06:08:24.119Z,100.00
2022-10-11T06:10:51.285Z,99.31
2022-10-11T06:13:18.435Z,98.75
2022-10-11T06:15:45.578Z,98.48
2022-10-11T06:18:12.683Z,98.52
2022-10-11T06:20:39.789Z,97.97
2022-10-11T06:23:06.869Z,98.04
2022-10-11T06:25:33.958Z,97.83
2022-10-11T06:28:01.166Z,97.40
2022-10-11T06:30:28.427Z,97.04
2022-10-11T06:32:55.606Z,96.62
2022-10-11T06:35:22.702Z,96.47
2022-10-11T06:37:50.058Z,95.87
2022-10-11T06:40:17.276Z,95.88
2022-10-11T06:42:48.509Z,95.86
2022-10-11T06:45:15.623Z,95.18
2022-10-11T06:47:42.699Z,94.59
2022-10-11T06:50:09.824Z,93.46
2022-10-11T06:52:36.947Z,93.05
2022-10-11T06:55:04.331Z,92.02
2022-10-11T06:57:31.408Z,91.63
2022-10-11T06:59:58.477Z,91.39
2022-10-11T07:02:25.629Z,90.07
2022-10-11T07:04:52.750Z,90.20
2022-10-11T07:07:19.877Z,89.51
2022-10-11T07:09:47.295Z,88.92
2022-10-11T07:12:14.462Z,88.69
2022-10-11T07:14:41.584Z,88.08
2022-10-11T07:17:08.737Z,87.63
2022-10-11T07:19:35.829Z,86.14
2022-10-11T07:22:02.924Z,86.36
2022-10-11T07:24:30.000Z,85.64
2022-10-11T07:26:57.419Z,84.47
2022-10-11T07:29:24.517Z,85.17
2022-10-11T07:31:51.728Z,84.48
2022-10-11T07:34:20.595Z,84.15
2022-10-11T07:36:47.734Z,83.97
2022-10-11T07:39:15.781Z,83.67
2022-10-11T07:41:45.829Z,82.74
2022-10-11T07:44:14.696Z,80.87
2022-10-11T07:46:41.911Z,80.43
2022-10-11T07:49:09.038Z,81.09
2022-10-11T07:51:36.199Z,79.94
2022-10-11T07:54:07.252Z,78.27
2022-10-11T07:56:35.000Z,76.96
2022-10-11T07:59:05.151Z,77.51
2022-10-11T08:01:32.943Z,77.98
2022-10-11T08:04:00.171Z,75.94
2022-10-11T08:06:31.623Z,76.55
2022-10-11T08:09:00.957Z,76.07
2022-10-11T08:11:31.127Z,76.29
2022-10-11T08:14:00.246Z,75.31
2022-10-11T08:16:27.506Z,76.30
2022-10-11T08:18:56.719Z,75.36
2022-10-11T08:21:24.665Z,76.13
2022-10-11T08:23:51.752Z,75.41
2022-10-11T08:26:18.891Z,74.97
2022-10-11T08:28:46.491Z,74.83
2022-10-11T08:31:15.049Z,74.99
2022-10-11T08:33:43.091Z,73.01
2022-10-11T08:36:11.417Z,73.18
2022-10-11T08:38:39.836Z,73.53
2022-10-11T08:41:20.479Z,72.99
2022-10-11T08:43:56.425Z,72.58
2022-10-11T08:46:30.926Z,73.60
2022-10-11T08:48:59.911Z,72.80
2022-10-11T08:51:31.430Z,71.60
2022-10-11T08:56:41.799Z,71.03
2022-10-11T08:59:11.619Z,71.21
2022-10-11T09:01:45.493Z,70.07
2022-10-11T09:04:17.830Z,70.15
2022-10-11T09:07:11.019Z,69.92
2022-10-11T09:10:16.338Z,69.40
2022-10-11T09:12:55.544Z,69.78
2022-10-11T09:15:25.473Z,70.77
2022-10-11T09:17:52.491Z,69.09
2022-10-11T09:20:53.033Z,67.66
2022-10-11T09:23:38.915Z,68.99
2022-10-11T09:26:21.341Z,68.09
2022-10-11T09:29:39.071Z,68.19
2022-10-11T09:32:15.210Z,66.83
2022-10-11T09:34:42.858Z,66.53
2022-10-11T09:37:21.518Z,66.12
2022-10-11T09:40:14.812Z,66.12
2022-10-11T09:42:41.896Z,66.00
2022-10-11T09:45:19.332Z,66.11
2022-10-11T09:47:46.915Z,65.51
2022-10-11T09:50:21.591Z,65.34
2022-10-11T09:52:59.875Z,64.02
2022-10-11T09:55:53.010Z,64.94
2022-10-11T09:58:28.725Z,64.50
2022-10-11T10:01:08.008Z,62.27
2022-10-11T10:03:38.207Z,63.94
2022-10-11T10:06:17.125Z,63.18
2022-10-11T10:08:47.027Z,62.39
2022-10-11T10:11:15.105Z,62.95
2022-10-11T10:13:51.965Z,62.45
2022-10-11T10:16:33.898Z,62.09
2022-10-11T10:19:07.438Z,59.32
2022-10-11T10:21:44.683Z,60.94
2022-10-11T10:27:21.146Z,58.64
2022-10-11T10:30:10.118Z,58.79
2022-10-11T10:32:49.628Z,58.30
2022-10-11T10:35:58.055Z,57.33
2022-10-11T10:38:34.283Z,57.67
2022-10-11T10:41:04.759Z,57.73
2022-10-11T10:43:38.043Z,57.21
2022-10-11T10:46:05.490Z,57.59
2022-10-11T10:51:48.246Z,55.60
2022-10-11T10:54:38.293Z,55.34
2022-10-11T10:57:29.099Z,55.72
2022-10-11T11:00:19.454Z,53.04
2022-10-11T11:02:49.428Z,53.51
2022-10-11T11:05:27.289Z,52.88
2022-10-11T11:08:48.365Z,52.97
2022-10-11T11:11:27.355Z,53.61
2022-10-11T11:14:00.478Z,52.27
2022-10-11T11:16:52.745Z,52.94
2022-10-11T11:19:54.271Z,52.52
2022-10-11T11:22:42.859Z,52.63
2022-10-11T11:25:12.839Z,50.07
2022-10-11T11:27:57.897Z,51.69
2022-10-11T11:30:42.631Z,50.69
2022-10-11T11:33:15.119Z,51.62
2022-10-11T11:36:13.806Z,49.92
2022-10-11T11:38:59.854Z,50.65
2022-10-11T11:41:55.740Z,50.72
2022-10-11T11:44:35.691Z,50.30
2022-10-11T11:47:02.816Z,50.22
2022-10-11T11:49:39.136Z,49.76
2022-10-11T11:52:13.054Z,49.65
2022-10-11T11:55:01.450Z,49.33
2022-10-11T11:58:06.788Z,48.00
2022-10-11T12:01:07.369Z,47.86
2022-10-11T12:03:42.047Z,48.44
2022-10-11T12:06:12.278Z,48.88
2022-10-11T12:08:42.365Z,48.23
2022-10-11T12:11:20.799Z,47.66
2022-10-11T12:13:50.778Z,47.17
2022-10-11T12:16:19.057Z,46.58
2022-10-11T12:18:48.219Z,48.50
2022-10-11T12:21:38.750Z,48.67
2022-10-11T12:24:20.814Z,47.44
2022-10-11T12:26:55.531Z,47.15
2022-10-11T12:29:28.512Z,47.73
2022-10-11T12:31:58.763Z,48.95
2022-10-11T12:34:37.868Z,49.97
2022-10-11T12:37:20.110Z,48.18
2022-10-11T12:39:58.064Z,49.13
2022-10-11T12:42:36.778Z,48.12
2022-10-11T12:45:13.096Z,47.12
2022-10-11T12:47:48.090Z,47.49
2022-10-11T12:50:17.649Z,47.35
2022-10-11T12:53:21.926Z,46.21
2022-10-11T12:56:09.749Z,47.34
2022-10-11T12:58:41.325Z,48.06
2022-10-11T13:01:12.908Z,46.60
2022-10-11T13:03:43.129Z,45.98
2022-10-11T13:06:26.359Z,48.21
2022-10-11T13:09:35.124Z,46.12
2022-10-11T13:12:19.374Z,45.07
2022-10-11T13:15:07.044Z,46.71
2022-10-11T13:17:38.663Z,45.92
2022-10-11T13:20:18.127Z,44.45
2022-10-11T13:22:52.107Z,46.82
2022-10-11T13:25:28.497Z,46.33
2022-10-11T13:27:59.445Z,46.46
2022-10-11T13:30:30.669Z,45.01
2022-10-11T13:32:59.418Z,44.16
2022-10-11T13:35:36.203Z,46.76
2022-10-11T13:38:07.327Z,46.15
2022-10-11T13:40:35.522Z,46.15
2022-10-11T13:43:05.528Z,46.02
2022-10-11T13:45:35.793Z,46.62
2022-10-11T13:48:03.161Z,45.13
2022-10-11T13:50:34.280Z,46.76
2022-10-11T13:53:09.337Z,46.14
2022-10-11T13:55:49.814Z,45.23
2022-10-11T13:58:30.173Z,47.70
2022-10-11T14:01:16.661Z,45.54
2022-10-11T14:03:47.347Z,47.93
2022-10-11T14:06:15.101Z,46.39
2022-10-11T14:08:42.197Z,44.82
2022-10-11T14:11:11.545Z,45.17
2022-10-11T14:13:49.882Z,46.07
2022-10-11T14:16:20.194Z,47.47
2022-10-11T14:18:47.304Z,45.31
2022-10-11T14:21:20.507Z,47.81
2022-10-11T14:23:51.810Z,46.51
2022-10-11T14:26:20.162Z,46.29
2022-10-11T14:28:56.130Z,46.86
2022-10-11T14:31:26.815Z,45.89
2022-10-11T14:33:55.544Z,46.16
2022-10-11T14:36:23.732Z,46.38
2022-10-11T14:38:51.810Z,45.86
2022-10-11T14:41:19.015Z,45.63
2022-10-11T14:43:46.174Z,45.98
2022-10-11T14:46:22.327Z,45.45
2022-10-11T14:48:55.495Z,46.72
2022-10-11T14:51:30.295Z,47.65
2022-10-11T14:53:58.257Z,46.99
2022-10-11T14:56:25.371Z,46.46
2022-10-11T14:58:52.478Z,47.48
2022-10-11T15:01:19.677Z,48.24
2022-10-11T15:03:46.978Z,47.60
2022-10-11T15:06:36.802Z,48.01
2022-10-11T15:09:05.125Z,49.16
2022-10-11T15:11:32.764Z,49.04
2022-10-11T15:13:59.922Z,50.33
2022-10-11T15:16:27.050Z,52.54
2022-10-11T15:18:54.193Z,51.89
2022-10-11T15:21:24.210Z,52.77
2022-10-11T15:23:52.457Z,52.58
2022-10-11T15:26:22.904Z,53.67
2022-10-11T15:28:51.231Z,53.17
2022-10-11T15:31:18.793Z,52.52
2022-10-11T15:33:46.153Z,53.52
2022-10-11T15:36:16.271Z,53.98
2022-10-11T15:38:44.795Z,55.54
2022-10-11T15:41:14.684Z,55.33
2022-10-11T15:43:43.551Z,55.50
2022-10-11T15:46:17.402Z,56.32
2022-10-11T15:48:45.414Z,57.03
2022-10-11T15:51:13.085Z,58.50
2022-10-11T15:53:40.761Z,58.43
2022-10-11T15:56:12.643Z,57.66
2022-10-11T15:58:40.970Z,58.10
2022-10-11T16:01:12.758Z,58.10
2022-10-11T16:03:40.243Z,58.52
2022-10-11T16:06:11.262Z,58.75
2022-10-11T16:08:39.144Z,58.85
2022-10-11T16:11:08.106Z,59.65
2022-10-11T16:13:36.170Z,60.18
2022-10-11T16:16:05.810Z,60.64
2022-10-11T16:18:35.656Z,60.34
2022-10-11T16:21:08.428Z,60.69
2022-10-11T16:23:36.759Z,60.72
2022-10-11T16:26:07.683Z,60.88
2022-10-11T16:28:35.607Z,61.30
2022-10-11T16:31:08.162Z,61.67
2022-10-11T16:33:35.510Z,61.75
2022-10-11T16:36:26.230Z,62.20
2022-10-11T16:38:53.310Z,62.11
2022-10-11T16:41:20.386Z,62.39
2022-10-11T16:43:52.045Z,62.65
2022-10-11T16:46:19.719Z,63.17
2022-10-11T16:48:47.651Z,63.20
2022-10-11T16:51:14.955Z,63.12
2022-10-11T16:53:42.078Z,63.24
2022-10-11T16:56:11.374Z,63.83
2022-10-11T16:58:38.647Z,63.78
2022-10-11T17:01:10.790Z,64.04
2022-10-11T17:03:38.030Z,64.77
2022-10-11T17:06:06.606Z,65.20
2022-10-11T17:08:35.111Z,65.47
2022-10-11T17:11:03.320Z,65.11
2022-10-11T17:13:30.733Z,65.88
2022-10-11T17:15:58.154Z,66.47
2022-10-11T17:18:25.683Z,66.07
2022-10-11T17:21:14.753Z,65.88
2022-10-11T17:23:42.641Z,66.15
2022-10-11T17:26:15.786Z,66.09
2022-10-11T17:28:43.274Z,66.33
2022-10-11T17:31:10.705Z,67.63
2022-10-11T17:33:38.377Z,68.49
2022-10-11T17:36:19.332Z,67.41
2022-10-11T17:38:47.262Z,68.33
2022-10-11T17:41:15.379Z,68.80
2022-10-11T17:43:42.679Z,67.79
2022-10-11T17:46:12.262Z,67.53
2022-10-11T17:48:40.006Z,67.67
2022-10-11T17:51:10.001Z,68.10
2022-10-11T17:53:37.703Z,68.38
2022-10-11T17:56:07.683Z,68.52
2022-10-11T17:58:35.667Z,68.90
2022-10-11T18:01:08.734Z,68.91
2022-10-11T18:03:36.511Z,68.88
2022-10-11T18:06:05.550Z,68.96
2022-10-11T18:08:40.467Z,69.30
2022-10-11T18:11:16.795Z,69.87
2022-10-11T18:13:46.902Z,71.02
2022-10-11T18:16:15.855Z,71.37
2022-10-11T18:18:43.695Z,71.57
2022-10-11T18:21:11.879Z,70.80
2022-10-11T18:23:39.513Z,70.89
2022-10-11T18:26:21.078Z,70.86
2022-10-11T18:28:49.341Z,70.59
2022-10-11T18:31:19.969Z,70.30
2022-10-11T18:33:47.820Z,70.46
2022-10-11T18:36:16.650Z,71.30
2022-10-11T18:38:49.175Z,72.41
2022-10-11T18:41:19.537Z,72.92
2022-10-11T18:43:54.515Z,74.11
2022-10-11T18:46:22.820Z,75.15
2022-10-11T18:48:52.499Z,75.23
2022-10-11T18:51:32.149Z,74.78
2022-10-11T18:54:00.389Z,74.00
2022-10-11T18:56:29.050Z,73.47
2022-10-11T18:58:57.398Z,75.88
2022-10-11T19:01:28.868Z,77.48
2022-10-11T19:03:59.033Z,76.52
2022-10-11T19:06:32.862Z,77.34
2022-10-11T19:09:11.903Z,77.78
2022-10-11T19:11:39.838Z,78.57
2022-10-11T19:14:11.292Z,78.85
2022-10-11T19:16:42.098Z,78.43
2022-10-11T19:19:11.785Z,79.32
2022-10-11T19:21:39.419Z,80.10
2022-10-11T19:24:06.918Z,80.02
2022-10-11T19:26:37.084Z,79.90
2022-10-11T19:29:07.962Z,80.85
2022-10-11T19:31:40.411Z,81.07
2022-10-11T19:34:07.622Z,80.13
2022-10-11T19:36:36.846Z,79.79
2022-10-11T19:39:05.740Z,79.76
2022-10-11T19:41:34.093Z,79.29
2022-10-11T19:44:01.225Z,79.67
2022-10-11T19:49:17.733Z,80.38
2022-10-11T19:51:44.958Z,80.36
2022-10-11T19:54:13.739Z,80.71
2022-10-11T19:56:40.876Z,81.20
2022-10-11T19:59:08.503Z,81.34
2022-10-11T20:01:36.452Z,81.22
2022-10-11T20:04:06.585Z,81.68
2022-10-11T20:06:38.631Z,82.03
2022-10-11T20:09:28.627Z,81.73
2022-10-11T20:11:55.209Z,80.30
2022-10-11T20:14:22.468Z,81.45
2022-10-11T20:16:50.567Z,81.04
2022-10-11T20:19:18.531Z,81.49
2022-10-11T20:21:45.721Z,81.38
2022-10-11T20:24:13.036Z,82.48
2022-10-11T20:26:40.263Z,82.63
2022-10-11T20:29:07.391Z,82.35
2022-10-11T20:31:38.402Z,82.61
2022-10-11T20:34:07.274Z,82.76
2022-10-11T20:36:36.122Z,82.92
2022-10-11T20:39:05.333Z,83.57
2022-10-11T20:41:37.020Z,83.71
2022-10-11T20:44:05.165Z,83.62
2022-10-11T20:46:34.507Z,83.64
2022-10-11T20:49:07.768Z,84.18
2022-10-11T20:51:36.988Z,84.63
2022-10-11T20:54:04.755Z,85.30
2022-10-11T20:56:32.234Z,85.94
2022-10-11T20:58:59.571Z,85.68
2022-10-11T21:01:33.218Z,85.68
2022-10-11T21:04:01.209Z,86.02
2022-10-11T21:06:29.579Z,86.42
2022-10-11T21:08:58.985Z,86.83
2022-10-11T21:11:27.028Z,87.07
2022-10-11T21:13:58.940Z,87.38
2022-10-11T21:16:26.481Z,87.08
2022-10-11T21:18:55.544Z,87.58
2022-10-11T21:21:23.985Z,87.11
2022-10-11T21:23:55.426Z,86.83
2022-10-11T21:26:22.837Z,87.12
2022-10-11T21:28:50.084Z,87.30
2022-10-11T21:31:19.683Z,87.00
2022-10-11T21:33:46.856Z,87.37
2022-10-11T21:36:17.349Z,87.37
2022-10-11T21:38:45.114Z,87.46
2022-10-11T21:41:15.390Z,87.47
2022-10-11T21:43:42.980Z,87.31
2022-10-11T21:46:16.130Z,87.42
2022-10-11T21:48:43.894Z,87.89
2022-10-11T21:51:21.752Z,88.04
2022-10-11T21:53:48.880Z,88.29
2022-10-11T21:56:15.986Z,88.37
2022-10-11T21:58:43.146Z,88.33
2022-10-11T22:01:11.035Z,88.29
2022-10-11T22:03:38.130Z,88.65
2022-10-11T22:06:05.649Z,88.60
2022-10-11T22:08:33.182Z,88.93
2022-10-11T22:11:01.506Z,89.13
2022-10-11T22:13:31.224Z,89.68
2022-10-11T22:16:01.851Z,89.62
2022-10-11T22:18:33.295Z,89.87
2022-10-11T22:21:13.388Z,90.06
2022-10-11T22:23:46.455Z,90.61
2022-10-11T22:26:26.050Z,90.84
2022-10-11T22:28:53.423Z,90.88
2022-10-11T22:31:21.950Z,91.13
2022-10-11T22:33:53.773Z,91.18
2022-10-11T22:36:21.275Z,91.20
2022-10-11T22:38:48.385Z,91.47
2022-10-11T22:41:15.478Z,91.56
2022-10-11T22:43:42.672Z,91.79
2022-10-11T22:46:10.330Z,91.82
2022-10-11T22:48:37.697Z,91.56
2022-10-11T22:51:04.962Z,91.83
2022-10-11T22:53:32.374Z,91.98
2022-10-11T22:55:59.497Z,92.17
2022-10-11T22:58:26.974Z,92.23
2022-10-11T23:00:54.107Z,92.18
2022-10-11T23:03:21.281Z,92.13
2022-10-11T23:05:56.500Z,92.56
2022-10-11T23:08:23.758Z,92.62
2022-10-11T23:10:51.133Z,92.97
2022-10-11T23:13:18.387Z,93.32
2022-10-11T23:15:45.610Z,93.22
2022-10-11T23:18:12.858Z,93.62
2022-10-11T23:20:39.998Z,93.58
2022-10-11T23:23:07.442Z,93.75
2022-10-11T23:25:34.547Z,93.38
2022-10-11T23:28:02.088Z,92.51
2022-10-11T23:30:29.542Z,91.39
2022-10-11T23:32:56.918Z,90.31
2022-10-11T23:35:24.240Z,90.81
2022-10-11T23:37:54.011Z,91.24
2022-10-11T23:40:21.206Z,91.84
2022-10-11T23:42:48.338Z,92.28
2022-10-11T23:45:15.542Z,92.68
2022-10-11T23:47:42.662Z,93.05
2022-10-11T23:50:10.244Z,92.51
2022-10-11T23:52:37.361Z,93.26
2022-10-11T23:55:04.787Z,93.27
2022-10-11T23:57:31.870Z,93.59
2022-10-11T23:59:59.088Z,93.64
